sensor_id;sensor_type;location;lat;lon;timestamp;pressure;altitude;pressure_sealevel;temperature;humidity
67803;BME280;54601;51.378;-1.342;2022-09-09T00:00:14;98914.45;;;22.80;38.93
67803;BME280;54601;51.378;-1.342;2022-09-09T00:02:39;98916.12;;;22.56;38.90
67803;BME280;54601;51.378;-1.342;2022-09-09T00:05:14;98917.12;;;22.52;38.93
67803;BME280;54601;51.378;-1.342;2022-09-09T00:07:37;98915.46;;;22.47;39.03
67803;BME280;54601;51.378;-1.342;2022-09-09T00:10:05;98917.35;;;22.55;38.87
67803;BME280;54601;51.378;-1.342;2022-09-09T00:12:27;98917.24;;;22.48;38.98
67803;BME280;54601;51.378;-1.342;2022-09-09T00:14:51;98917.79;;;22.53;38.91
67803;BME280;54601;51.378;-1.342;2022-09-09T00:17:21;98919.69;;;22.55;38.84
67803;BME280;54601;51.378;-1.342;2022-09-09T00:19:44;98923.17;;;22.56;38.75
67803;BME280;54601;51.378;-1.342;2022-09-09T00:22:15;98924.08;;;22.51;38.94
67803;BME280;54601;51.378;-1.342;2022-09-09T00:24:37;98925.50;;;22.69;38.94
67803;BME280;54601;51.378;-1.342;2022-09-09T00:27:03;98924.77;;;22.50;38.89
67803;BME280;54601;51.378;-1.342;2022-09-09T00:29:29;98923.43;;;22.38;39.04
67803;BME280;54601;51.378;-1.342;2022-09-09T00:31:50;98923.62;;;22.46;38.97
67803;BME280;54601;51.378;-1.342;2022-09-09T00:34:18;98923.05;;;22.45;38.91
67803;BME280;54601;51.378;-1.342;2022-09-09T00:36:41;98924.40;;;22.46;38.94
67803;BME280;54601;51.378;-1.342;2022-09-09T00:39:13;98924.69;;;22.67;38.89
67803;BME280;54601;51.378;-1.342;2022-09-09T00:41:44;98924.54;;;22.42;38.94
67803;BME280;54601;51.378;-1.342;2022-09-09T00:44:06;98922.78;;;22.62;39.00
67803;BME280;54601;51.378;-1.342;2022-09-09T00:48:57;98921.89;;;22.72;38.78
67803;BME280;54601;51.378;-1.342;2022-09-09T00:51:25;98921.01;;;22.51;38.84
67803;BME280;54601;51.378;-1.342;2022-09-09T00:56:13;98919.60;;;22.38;38.96
67803;BME280;54601;51.378;-1.342;2022-09-09T00:58:34;98921.20;;;22.57;39.06
67803;BME280;54601;51.378;-1.342;2022-09-09T01:01:04;98924.30;;;22.38;38.95
67803;BME280;54601;51.378;-1.342;2022-09-09T01:03:33;98923.65;;;22.37;38.98
67803;BME280;54601;51.378;-1.342;2022-09-09T01:06:00;98923.98;;;22.59;39.00
67803;BME280;54601;51.378;-1.342;2022-09-09T01:08:33;98920.51;;;22.42;38.91
67803;BME280;54601;51.378;-1.342;2022-09-09T01:10:49;98920.30;;;22.43;38.89
67803;BME280;54601;51.378;-1.342;2022-09-09T01:13:17;98922.63;;;22.37;38.97
67803;BME280;54601;51.378;-1.342;2022-09-09T01:15:36;98922.58;;;22.63;38.90
67803;BME280;54601;51.378;-1.342;2022-09-09T01:18:05;98920.63;;;22.42;38.91
67803;BME280;54601;51.378;-1.342;2022-09-09T01:20:31;98918.27;;;22.34;38.94
67803;BME280;54601;51.378;-1.342;2022-09-09T01:23:06;98919.64;;;22.38;38.91
67803;BME280;54601;51.378;-1.342;2022-09-09T01:25:28;98923.10;;;22.39;38.91
67803;BME280;54601;51.378;-1.342;2022-09-09T01:27:46;98926.16;;;22.36;38.88
67803;BME280;54601;51.378;-1.342;2022-09-09T01:30:12;98931.21;;;22.34;38.93
67803;BME280;54601;51.378;-1.342;2022-09-09T01:32:41;98934.56;;;22.56;38.95
67803;BME280;54601;51.378;-1.342;2022-09-09T01:35:04;98936.14;;;22.29;39.04
67803;BME280;54601;51.378;-1.342;2022-09-09T01:37:29;98935.58;;;22.36;38.86
67803;BME280;54601;51.378;-1.342;2022-09-09T01:39:55;98936.15;;;22.33;38.94
67803;BME280;54601;51.378;-1.342;2022-09-09T01:42:21;98935.93;;;22.31;38.96
67803;BME280;54601;51.378;-1.342;2022-09-09T01:44:47;98934.10;;;22.55;38.91
67803;BME280;54601;51.378;-1.342;2022-09-09T01:47:14;98936.85;;;22.80;38.94
67803;BME280;54601;51.378;-1.342;2022-09-09T01:49:39;98936.89;;;22.30;38.96
67803;BME280;54601;51.378;-1.342;2022-09-09T01:52:05;98938.91;;;22.51;38.96
67803;BME280;54601;51.378;-1.342;2022-09-09T01:54:32;98940.71;;;22.28;38.96
67803;BME280;54601;51.378;-1.342;2022-09-09T01:57:04;98942.34;;;22.62;38.76
67803;BME280;54601;51.378;-1.342;2022-09-09T01:59:30;98940.82;;;22.37;38.81
67803;BME280;54601;51.378;-1.342;2022-09-09T02:01:58;98937.58;;;22.49;38.88
67803;BME280;54601;51.378;-1.342;2022-09-09T02:04:25;98937.99;;;22.57;38.81
67803;BME280;54601;51.378;-1.342;2022-09-09T02:06:40;98941.44;;;22.57;38.80
67803;BME280;54601;51.378;-1.342;2022-09-09T02:09:07;98946.01;;;22.50;38.93
67803;BME280;54601;51.378;-1.342;2022-09-09T02:11:33;98944.47;;;22.29;38.87
67803;BME280;54601;51.378;-1.342;2022-09-09T02:14:01;98946.77;;;22.60;38.72
67803;BME280;54601;51.378;-1.342;2022-09-09T02:16:27;98949.42;;;22.33;38.78
67803;BME280;54601;51.378;-1.342;2022-09-09T02:18:53;98951.12;;;22.69;39.01
67803;BME280;54601;51.378;-1.342;2022-09-09T02:21:17;98950.48;;;22.49;38.91
67803;BME280;54601;51.378;-1.342;2022-09-09T02:23:43;98953.26;;;22.44;38.93
67803;BME280;54601;51.378;-1.342;2022-09-09T02:26:09;98955.68;;;22.71;38.90
67803;BME280;54601;51.378;-1.342;2022-09-09T02:28:35;98964.64;;;22.53;38.79
67803;BME280;54601;51.378;-1.342;2022-09-09T02:31:00;98967.91;;;22.47;38.86
67803;BME280;54601;51.378;-1.342;2022-09-09T02:33:28;98971.93;;;22.70;38.89
67803;BME280;54601;51.378;-1.342;2022-09-09T02:35:53;98971.41;;;22.17;38.96
67803;BME280;54601;51.378;-1.342;2022-09-09T02:38:19;98966.73;;;22.22;38.86
67803;BME280;54601;51.378;-1.342;2022-09-09T02:40:43;98965.47;;;22.38;38.70
67803;BME280;54601;51.378;-1.342;2022-09-09T02:43:09;98968.78;;;22.42;38.90
67803;BME280;54601;51.378;-1.342;2022-09-09T02:45:41;98970.38;;;22.36;38.98
67803;BME280;54601;51.378;-1.342;2022-09-09T02:48:07;98968.83;;;22.42;38.91
67803;BME280;54601;51.378;-1.342;2022-09-09T02:50:32;98972.12;;;22.24;38.86
67803;BME280;54601;51.378;-1.342;2022-09-09T02:53:02;98970.64;;;22.48;38.82
67803;BME280;54601;51.378;-1.342;2022-09-09T02:55:24;98972.98;;;22.35;38.94
67803;BME280;54601;51.378;-1.342;2022-09-09T02:57:46;98976.33;;;22.76;38.72
67803;BME280;54601;51.378;-1.342;2022-09-09T03:00:12;98980.28;;;22.43;38.84
67803;BME280;54601;51.378;-1.342;2022-09-09T03:02:37;98982.92;;;22.49;38.78
67803;BME280;54601;51.378;-1.342;2022-09-09T03:05:04;98984.36;;;22.17;38.90
67803;BME280;54601;51.378;-1.342;2022-09-09T03:07:29;98982.88;;;22.33;38.95
67803;BME280;54601;51.378;-1.342;2022-09-09T03:09:55;98983.22;;;22.34;38.93
67803;BME280;54601;51.378;-1.342;2022-09-09T03:12:21;98983.77;;;22.13;38.93
67803;BME280;54601;51.378;-1.342;2022-09-09T03:14:47;98984.04;;;22.33;38.97
67803;BME280;54601;51.378;-1.342;2022-09-09T03:17:13;98987.01;;;22.40;38.88
67803;BME280;54601;51.378;-1.342;2022-09-09T03:19:39;98985.95;;;22.40;38.86
67803;BME280;54601;51.378;-1.342;2022-09-09T03:22:05;98987.43;;;22.38;38.55
67803;BME280;54601;51.378;-1.342;2022-09-09T03:24:31;98989.57;;;22.31;38.64
67803;BME280;54601;51.378;-1.342;2022-09-09T03:26:57;98991.34;;;22.47;38.70
67803;BME280;54601;51.378;-1.342;2022-09-09T03:29:22;98992.07;;;22.58;38.55
67803;BME280;54601;51.378;-1.342;2022-09-09T03:31:48;98994.97;;;22.54;38.60
67803;BME280;54601;51.378;-1.342;2022-09-09T03:34:14;98994.86;;;22.52;38.61
67803;BME280;54601;51.378;-1.342;2022-09-09T03:36:40;98997.96;;;22.42;38.77
67803;BME280;54601;51.378;-1.342;2022-09-09T03:39:07;99000.85;;;22.27;38.63
67803;BME280;54601;51.378;-1.342;2022-09-09T03:41:32;99003.66;;;22.43;38.71
67803;BME280;54601;51.378;-1.342;2022-09-09T03:43:58;99006.27;;;22.35;38.81
67803;BME280;54601;51.378;-1.342;2022-09-09T03:46:25;99007.06;;;22.29;38.88
67803;BME280;54601;51.378;-1.342;2022-09-09T03:48:50;99013.38;;;22.37;38.83
67803;BME280;54601;51.378;-1.342;2022-09-09T03:51:16;99019.31;;;21.98;39.03
67803;BME280;54601;51.378;-1.342;2022-09-09T03:53:42;99020.05;;;22.27;38.93
67803;BME280;54601;51.378;-1.342;2022-09-09T03:56:08;99025.34;;;22.26;38.92
67803;BME280;54601;51.378;-1.342;2022-09-09T03:58:34;99025.07;;;22.57;38.85
67803;BME280;54601;51.378;-1.342;2022-09-09T04:01:01;99028.69;;;22.33;38.82
67803;BME280;54601;51.378;-1.342;2022-09-09T04:03:26;99031.80;;;22.41;38.73
67803;BME280;54601;51.378;-1.342;2022-09-09T04:05:52;99031.42;;;22.14;38.77
67803;BME280;54601;51.378;-1.342;2022-09-09T04:08:18;99032.24;;;22.39;38.73
67803;BME280;54601;51.378;-1.342;2022-09-09T04:10:44;99032.25;;;22.45;38.98
67803;BME280;54601;51.378;-1.342;2022-09-09T04:13:10;99035.20;;;22.44;38.64
67803;BME280;54601;51.378;-1.342;2022-09-09T04:15:36;99037.28;;;22.16;38.71
67803;BME280;54601;51.378;-1.342;2022-09-09T04:18:02;99040.30;;;22.30;38.72
67803;BME280;54601;51.378;-1.342;2022-09-09T04:20:27;99042.94;;;22.43;38.61
67803;BME280;54601;51.378;-1.342;2022-09-09T04:22:53;99041.30;;;22.29;38.77
67803;BME280;54601;51.378;-1.342;2022-09-09T04:25:19;99039.67;;;22.31;38.72
67803;BME280;54601;51.378;-1.342;2022-09-09T04:27:45;99040.62;;;22.22;38.85
67803;BME280;54601;51.378;-1.342;2022-09-09T04:30:12;99044.25;;;22.51;38.80
67803;BME280;54601;51.378;-1.342;2022-09-09T04:32:37;99043.57;;;22.28;38.74
67803;BME280;54601;51.378;-1.342;2022-09-09T04:35:04;99046.28;;;22.53;38.75
67803;BME280;54601;51.378;-1.342;2022-09-09T04:37:29;99049.81;;;22.06;38.69
67803;BME280;54601;51.378;-1.342;2022-09-09T04:39:55;99053.96;;;22.23;38.77
67803;BME280;54601;51.378;-1.342;2022-09-09T04:42:21;99055.92;;;22.26;38.75
67803;BME280;54601;51.378;-1.342;2022-09-09T04:44:47;99054.03;;;22.53;38.71
67803;BME280;54601;51.378;-1.342;2022-09-09T04:47:13;99054.11;;;22.31;38.64
67803;BME280;54601;51.378;-1.342;2022-09-09T04:49:39;99061.72;;;22.18;38.80
67803;BME280;54601;51.378;-1.342;2022-09-09T04:52:05;99064.41;;;22.20;38.83
67803;BME280;54601;51.378;-1.342;2022-09-09T04:54:31;99065.32;;;22.21;38.75
67803;BME280;54601;51.378;-1.342;2022-09-09T04:56:57;99065.78;;;22.21;38.75
67803;BME280;54601;51.378;-1.342;2022-09-09T04:59:23;99065.05;;;22.11;38.58
67803;BME280;54601;51.378;-1.342;2022-09-09T05:01:49;99070.02;;;22.19;38.77
67803;BME280;54601;51.378;-1.342;2022-09-09T05:04:15;99072.90;;;22.39;38.86
67803;BME280;54601;51.378;-1.342;2022-09-09T05:06:41;99076.49;;;22.14;38.81
67803;BME280;54601;51.378;-1.342;2022-09-09T05:09:06;99078.31;;;22.20;38.72
67803;BME280;54601;51.378;-1.342;2022-09-09T05:11:33;99079.97;;;22.22;38.70
67803;BME280;54601;51.378;-1.342;2022-09-09T05:13:58;99082.57;;;22.14;38.80
67803;BME280;54601;51.378;-1.342;2022-09-09T05:16:24;99085.22;;;22.21;38.70
67803;BME280;54601;51.378;-1.342;2022-09-09T05:18:50;99086.58;;;22.32;38.91
67803;BME280;54601;51.378;-1.342;2022-09-09T05:21:17;99090.17;;;22.39;38.44
67803;BME280;54601;51.378;-1.342;2022-09-09T05:23:42;99094.25;;;22.36;38.46
67803;BME280;54601;51.378;-1.342;2022-09-09T05:26:12;99094.78;;;21.98;38.66
67803;BME280;54601;51.378;-1.342;2022-09-09T05:28:34;99095.26;;;22.25;38.59
67803;BME280;54601;51.378;-1.342;2022-09-09T05:31:02;99096.93;;;22.14;38.74
67803;BME280;54601;51.378;-1.342;2022-09-09T05:33:26;99098.71;;;22.41;38.74
67803;BME280;54601;51.378;-1.342;2022-09-09T05:35:57;99102.15;;;22.08;38.81
67803;BME280;54601;51.378;-1.342;2022-09-09T05:38:17;99105.29;;;22.40;38.74
67803;BME280;54601;51.378;-1.342;2022-09-09T05:40:47;99105.57;;;22.38;38.75
67803;BME280;54601;51.378;-1.342;2022-09-09T05:43:09;99107.82;;;22.12;38.73
67803;BME280;54601;51.378;-1.342;2022-09-09T05:45:35;99105.85;;;22.09;38.79
67803;BME280;54601;51.378;-1.342;2022-09-09T05:48:01;99110.62;;;22.33;38.81
67803;BME280;54601;51.378;-1.342;2022-09-09T05:50:27;99113.14;;;22.07;38.81
67803;BME280;54601;51.378;-1.342;2022-09-09T05:52:54;99118.28;;;22.38;38.75
67803;BME280;54601;51.378;-1.342;2022-09-09T05:55:19;99120.42;;;22.11;38.72
67803;BME280;54601;51.378;-1.342;2022-09-09T05:57:48;99124.00;;;21.99;38.90
67803;BME280;54601;51.378;-1.342;2022-09-09T06:00:12;99123.32;;;21.81;38.83
67803;BME280;54601;51.378;-1.342;2022-09-09T06:02:37;99126.73;;;22.12;38.68
67803;BME280;54601;51.378;-1.342;2022-09-09T06:05:03;99128.68;;;21.72;38.94
67803;BME280;54601;51.378;-1.342;2022-09-09T06:07:28;99131.69;;;22.05;38.76
67803;BME280;54601;51.378;-1.342;2022-09-09T06:09:54;99134.67;;;22.11;38.71
67803;BME280;54601;51.378;-1.342;2022-09-09T06:12:20;99134.26;;;22.41;38.62
67803;BME280;54601;51.378;-1.342;2022-09-09T06:14:46;99137.97;;;22.28;38.81
67803;BME280;54601;51.378;-1.342;2022-09-09T06:17:12;99141.26;;;22.00;38.81
67803;BME280;54601;51.378;-1.342;2022-09-09T06:19:38;99141.16;;;22.36;38.69
67803;BME280;54601;51.378;-1.342;2022-09-09T06:22:04;99147.95;;;22.00;38.77
67803;BME280;54601;51.378;-1.342;2022-09-09T06:24:30;99149.81;;;22.25;38.84
67803;BME280;54601;51.378;-1.342;2022-09-09T06:26:56;99151.32;;;21.95;38.88
67803;BME280;54601;51.378;-1.342;2022-09-09T06:29:22;99152.47;;;22.21;38.85
67803;BME280;54601;51.378;-1.342;2022-09-09T06:31:48;99153.45;;;21.93;38.90
67803;BME280;54601;51.378;-1.342;2022-09-09T06:34:14;99157.81;;;21.95;38.83
67803;BME280;54601;51.378;-1.342;2022-09-09T06:36:40;99163.42;;;21.64;38.98
67803;BME280;54601;51.378;-1.342;2022-09-09T06:39:06;99164.43;;;21.95;38.85
67803;BME280;54601;51.378;-1.342;2022-09-09T06:41:32;99163.76;;;21.93;38.85
67803;BME280;54601;51.378;-1.342;2022-09-09T06:43:58;99167.11;;;21.77;38.75
67803;BME280;54601;51.378;-1.342;2022-09-09T06:46:25;99169.31;;;21.98;38.76
67803;BME280;54601;51.378;-1.342;2022-09-09T06:48:49;99169.90;;;21.98;38.79
67803;BME280;54601;51.378;-1.342;2022-09-09T06:51:17;99167.64;;;22.06;38.66
67803;BME280;54601;51.378;-1.342;2022-09-09T06:53:42;99168.29;;;22.19;38.43
67803;BME280;54601;51.378;-1.342;2022-09-09T06:58:33;99175.55;;;22.14;38.53
67803;BME280;54601;51.378;-1.342;2022-09-09T07:01:03;99179.76;;;21.94;38.81
67803;BME280;54601;51.378;-1.342;2022-09-09T07:03:25;99178.84;;;21.99;38.72
67803;BME280;54601;51.378;-1.342;2022-09-09T07:05:54;99179.74;;;22.12;38.50
67803;BME280;54601;51.378;-1.342;2022-09-09T07:08:17;99184.70;;;21.68;38.86
67803;BME280;54601;51.378;-1.342;2022-09-09T07:10:43;99184.89;;;22.07;38.61
67803;BME280;54601;51.378;-1.342;2022-09-09T07:13:09;99184.15;;;22.02;38.65
67803;BME280;54601;51.378;-1.342;2022-09-09T07:15:35;99185.54;;;22.07;38.56
67803;BME280;54601;51.378;-1.342;2022-09-09T07:18:01;99186.90;;;21.91;38.82
67803;BME280;54601;51.378;-1.342;2022-09-09T07:20:27;99186.77;;;22.34;38.58
67803;BME280;54601;51.378;-1.342;2022-09-09T07:22:55;99189.28;;;22.06;38.59
67803;BME280;54601;51.378;-1.342;2022-09-09T07:25:19;99189.37;;;22.04;38.63
67803;BME280;54601;51.378;-1.342;2022-09-09T07:27:45;99193.78;;;22.22;38.74
67803;BME280;54601;51.378;-1.342;2022-09-09T07:30:11;99197.27;;;22.23;38.72
67803;BME280;54601;51.378;-1.342;2022-09-09T07:32:37;99200.54;;;22.29;38.63
67803;BME280;54601;51.378;-1.342;2022-09-09T07:35:03;99198.95;;;21.97;38.71
67803;BME280;54601;51.378;-1.342;2022-09-09T07:37:28;99197.87;;;22.00;38.66
67803;BME280;54601;51.378;-1.342;2022-09-09T07:39:54;99200.84;;;22.05;38.61
67803;BME280;54601;51.378;-1.342;2022-09-09T07:42:20;99201.44;;;21.83;38.59
67803;BME280;54601;51.378;-1.342;2022-09-09T07:44:46;99202.79;;;22.28;38.66
67803;BME280;54601;51.378;-1.342;2022-09-09T07:47:12;99206.27;;;22.45;38.83
67803;BME280;54601;51.378;-1.342;2022-09-09T07:49:38;99206.10;;;22.05;38.95
67803;BME280;54601;51.378;-1.342;2022-09-09T07:52:04;99205.99;;;22.19;38.51
67803;BME280;54601;51.378;-1.342;2022-09-09T07:54:30;99206.36;;;22.22;38.43
67803;BME280;54601;51.378;-1.342;2022-09-09T07:56:56;99212.93;;;22.18;38.50
67803;BME280;54601;51.378;-1.342;2022-09-09T07:59:22;99215.27;;;21.10;38.35
67803;BME280;54601;51.378;-1.342;2022-09-09T08:01:50;99211.67;;;22.48;37.86
67803;BME280;54601;51.378;-1.342;2022-09-09T08:04:16;99217.24;;;22.55;38.23
67803;BME280;54601;51.378;-1.342;2022-09-09T08:06:41;99225.62;;;22.48;38.49
67803;BME280;54601;51.378;-1.342;2022-09-09T08:09:08;99229.30;;;22.40;38.52
67803;BME280;54601;51.378;-1.342;2022-09-09T08:11:32;99230.83;;;22.45;38.66
67803;BME280;54601;51.378;-1.342;2022-09-09T08:13:58;99235.11;;;22.32;38.91
67803;BME280;54601;51.378;-1.342;2022-09-09T08:16:26;99238.52;;;22.29;38.86
67803;BME280;54601;51.378;-1.342;2022-09-09T08:18:51;99241.82;;;22.54;38.86
67803;BME280;54601;51.378;-1.342;2022-09-09T08:21:18;99247.52;;;22.56;38.82
67803;BME280;54601;51.378;-1.342;2022-09-09T08:23:43;99253.44;;;22.30;38.79
67803;BME280;54601;51.378;-1.342;2022-09-09T08:26:12;99255.79;;;22.32;38.73
67803;BME280;54601;51.378;-1.342;2022-09-09T08:28:34;99258.60;;;22.27;38.80
67803;BME280;54601;51.378;-1.342;2022-09-09T08:31:06;99260.73;;;22.48;38.88
67803;BME280;54601;51.378;-1.342;2022-09-09T08:33:26;99265.66;;;22.31;38.77
67803;BME280;54601;51.378;-1.342;2022-09-09T08:35:52;99264.63;;;22.31;38.74
67803;BME280;54601;51.378;-1.342;2022-09-09T08:38:17;99269.26;;;22.61;38.70
67803;BME280;54601;51.378;-1.342;2022-09-09T08:40:46;99267.41;;;22.37;38.65
67803;BME280;54601;51.378;-1.342;2022-09-09T08:43:09;99269.81;;;22.66;38.63
67803;BME280;54601;51.378;-1.342;2022-09-09T08:45:39;99272.67;;;22.19;38.60
67803;BME280;54601;51.378;-1.342;2022-09-09T08:48:13;99270.73;;;22.34;38.69
67803;BME280;54601;51.378;-1.342;2022-09-09T08:50:29;99270.67;;;22.21;38.59
67803;BME280;54601;51.378;-1.342;2022-09-09T08:52:57;99274.43;;;22.48;38.57
67803;BME280;54601;51.378;-1.342;2022-09-09T08:55:24;99277.27;;;22.50;38.54
67803;BME280;54601;51.378;-1.342;2022-09-09T08:57:45;99281.47;;;22.56;38.50
67803;BME280;54601;51.378;-1.342;2022-09-09T09:00:12;99285.44;;;22.54;38.53
67803;BME280;54601;51.378;-1.342;2022-09-09T09:02:42;99287.12;;;22.52;38.56
67803;BME280;54601;51.378;-1.342;2022-09-09T09:05:12;99290.92;;;22.49;38.59
67803;BME280;54601;51.378;-1.342;2022-09-09T09:07:40;99297.44;;;22.27;38.60
67803;BME280;54601;51.378;-1.342;2022-09-09T09:10:00;99300.47;;;22.57;38.60
67803;BME280;54601;51.378;-1.342;2022-09-09T09:12:23;99304.84;;;22.83;38.56
67803;BME280;54601;51.378;-1.342;2022-09-09T09:14:47;99306.60;;;22.55;38.66
67803;BME280;54601;51.378;-1.342;2022-09-09T09:17:14;99308.15;;;22.77;38.97
67803;BME280;54601;51.378;-1.342;2022-09-09T09:19:40;99310.69;;;22.79;38.77
67803;BME280;54601;51.378;-1.342;2022-09-09T09:22:10;99318.22;;;22.36;39.02
67803;BME280;54601;51.378;-1.342;2022-09-09T09:24:35;99323.77;;;22.43;38.84
67803;BME280;54601;51.378;-1.342;2022-09-09T09:26:56;99324.18;;;22.76;38.81
67803;BME280;54601;51.378;-1.342;2022-09-09T09:29:24;99329.16;;;22.48;38.94
67803;BME280;54601;51.378;-1.342;2022-09-09T09:31:51;99330.17;;;22.48;38.91
67803;BME280;54601;51.378;-1.342;2022-09-09T09:34:14;99328.74;;;22.48;38.82
67803;BME280;54601;51.378;-1.342;2022-09-09T09:36:42;99330.80;;;22.77;38.85
67803;BME280;54601;51.378;-1.342;2022-09-09T09:39:06;99334.31;;;22.48;38.72
67803;BME280;54601;51.378;-1.342;2022-09-09T09:41:35;99340.74;;;22.24;38.72
67803;BME280;54601;51.378;-1.342;2022-09-09T09:43:58;99343.28;;;22.46;38.72
67803;BME280;54601;51.378;-1.342;2022-09-09T09:46:24;99343.04;;;22.48;38.70
67803;BME280;54601;51.378;-1.342;2022-09-09T09:48:58;99348.40;;;22.29;38.64
67803;BME280;54601;51.378;-1.342;2022-09-09T09:51:20;99351.21;;;22.22;38.73
67803;BME280;54601;51.378;-1.342;2022-09-09T09:53:41;99355.65;;;22.24;38.67
67803;BME280;54601;51.378;-1.342;2022-09-09T09:56:09;99356.54;;;22.49;38.62
67803;BME280;54601;51.378;-1.342;2022-09-09T09:58:37;99358.07;;;22.49;38.62
67803;BME280;54601;51.378;-1.342;2022-09-09T10:01:00;99360.58;;;22.28;38.58
67803;BME280;54601;51.378;-1.342;2022-09-09T10:03:28;99363.43;;;22.78;38.54
67803;BME280;54601;51.378;-1.342;2022-09-09T10:05:51;99364.99;;;22.34;38.52
67803;BME280;54601;51.378;-1.342;2022-09-09T10:08:17;99363.59;;;22.55;38.53
67803;BME280;54601;51.378;-1.342;2022-09-09T10:10:51;99367.83;;;22.50;38.62
67803;BME280;54601;51.378;-1.342;2022-09-09T10:13:13;99369.41;;;22.80;38.67
67803;BME280;54601;51.378;-1.342;2022-09-09T10:15:41;99371.15;;;22.28;38.63
67803;BME280;54601;51.378;-1.342;2022-09-09T10:18:11;99371.16;;;22.58;38.51
67803;BME280;54601;51.378;-1.342;2022-09-09T10:20:34;99372.15;;;22.50;38.64
67803;BME280;54601;51.378;-1.342;2022-09-09T10:22:58;99372.74;;;22.59;38.51
67803;BME280;54601;51.378;-1.342;2022-09-09T10:25:29;99377.47;;;22.33;38.62
67803;BME280;54601;51.378;-1.342;2022-09-09T10:27:51;99377.23;;;22.41;38.48
67803;BME280;54601;51.378;-1.342;2022-09-09T10:30:14;99376.07;;;22.35;38.51
67803;BME280;54601;51.378;-1.342;2022-09-09T10:32:40;99372.46;;;22.39;38.45
67803;BME280;54601;51.378;-1.342;2022-09-09T10:35:09;99377.21;;;22.34;38.51
67803;BME280;54601;51.378;-1.342;2022-09-09T10:37:38;99377.83;;;22.60;38.46
67803;BME280;54601;51.378;-1.342;2022-09-09T10:39:59;99381.43;;;22.53;38.58
67803;BME280;54601;51.378;-1.342;2022-09-09T10:42:21;99380.59;;;22.34;38.58
67803;BME280;54601;51.378;-1.342;2022-09-09T10:44:57;99376.38;;;22.60;38.57
67803;BME280;54601;51.378;-1.342;2022-09-09T10:47:24;99374.25;;;22.40;38.62
67803;BME280;54601;51.378;-1.342;2022-09-09T10:52:06;99373.52;;;22.75;38.58
67803;BME280;54601;51.378;-1.342;2022-09-09T10:54:36;99375.28;;;22.58;38.51
67803;BME280;54601;51.378;-1.342;2022-09-09T10:56:57;99376.70;;;22.60;38.44
67803;BME280;54601;51.378;-1.342;2022-09-09T10:59:23;99378.55;;;22.62;38.31
67803;BME280;54601;51.378;-1.342;2022-09-09T11:01:48;99379.89;;;22.84;38.37
67803;BME280;54601;51.378;-1.342;2022-09-09T11:04:16;99379.93;;;22.60;38.32
67803;BME280;54601;51.378;-1.342;2022-09-09T11:06:41;99380.74;;;22.80;38.29
67803;BME280;54601;51.378;-1.342;2022-09-09T11:09:03;99387.02;;;22.52;38.40
67803;BME280;54601;51.378;-1.342;2022-09-09T11:11:33;99385.28;;;22.75;38.34
67803;BME280;54601;51.378;-1.342;2022-09-09T11:13:59;99390.42;;;22.81;38.25
67803;BME280;54601;51.378;-1.342;2022-09-09T11:16:27;99391.99;;;22.51;38.33
67803;BME280;54601;51.378;-1.342;2022-09-09T11:18:47;99394.76;;;22.70;38.36
67803;BME280;54601;51.378;-1.342;2022-09-09T11:21:17;99397.14;;;22.71;38.32
67803;BME280;54601;51.378;-1.342;2022-09-09T11:23:41;99399.37;;;22.72;38.29
67803;BME280;54601;51.378;-1.342;2022-09-09T11:26:06;99398.25;;;22.53;38.24
67803;BME280;54601;51.378;-1.342;2022-09-09T11:28:40;99402.10;;;22.45;38.35
67803;BME280;54601;51.378;-1.342;2022-09-09T11:31:06;99399.94;;;22.55;38.26
67803;BME280;54601;51.378;-1.342;2022-09-09T11:33:34;99402.13;;;22.52;38.27
67803;BME280;54601;51.378;-1.342;2022-09-09T11:36:00;99404.42;;;22.54;38.27
67803;BME280;54601;51.378;-1.342;2022-09-09T11:38:19;99405.61;;;22.79;38.26
67803;BME280;54601;51.378;-1.342;2022-09-09T11:40:40;99409.70;;;22.56;38.53
67803;BME280;54601;51.378;-1.342;2022-09-09T11:43:09;99409.25;;;22.85;38.60
67803;BME280;54601;51.378;-1.342;2022-09-09T11:45:32;99408.88;;;23.07;38.61
67803;BME280;54601;51.378;-1.342;2022-09-09T11:47:58;99409.49;;;22.86;38.63
67803;BME280;54601;51.378;-1.342;2022-09-09T11:50:29;99412.60;;;22.78;38.74
67803;BME280;54601;51.378;-1.342;2022-09-09T11:52:49;99415.22;;;22.65;38.81
67803;BME280;54601;51.378;-1.342;2022-09-09T11:55:24;99417.20;;;22.86;38.91
67803;BME280;54601;51.378;-1.342;2022-09-09T11:57:40;99418.45;;;22.90;39.00
67803;BME280;54601;51.378;-1.342;2022-09-09T12:02:32;99421.99;;;22.98;38.99
67803;BME280;54601;51.378;-1.342;2022-09-09T12:05:01;99421.59;;;22.93;39.08
67803;BME280;54601;51.378;-1.342;2022-09-09T12:07:31;99422.15;;;23.03;39.06
67803;BME280;54601;51.378;-1.342;2022-09-09T12:09:52;99421.29;;;22.80;39.08
67803;BME280;54601;51.378;-1.342;2022-09-09T12:12:23;99422.61;;;23.22;39.26
67803;BME280;54601;51.378;-1.342;2022-09-09T12:14:54;99428.48;;;23.07;39.16
67803;BME280;54601;51.378;-1.342;2022-09-09T12:17:17;99427.22;;;22.85;39.22
67803;BME280;54601;51.378;-1.342;2022-09-09T12:19:33;99429.63;;;23.16;39.17
67803;BME280;54601;51.378;-1.342;2022-09-09T12:22:04;99429.04;;;23.15;39.15
67803;BME280;54601;51.378;-1.342;2022-09-09T12:24:32;99430.48;;;23.18;39.13
67803;BME280;54601;51.378;-1.342;2022-09-09T12:26:54;99433.62;;;23.19;39.12
67803;BME280;54601;51.378;-1.342;2022-09-09T12:29:25;99429.89;;;22.91;39.16
67803;BME280;54601;51.378;-1.342;2022-09-09T12:31:46;99432.58;;;23.16;39.12
67803;BME280;54601;51.378;-1.342;2022-09-09T12:34:11;99435.53;;;23.13;39.11
67803;BME280;54601;51.378;-1.342;2022-09-09T12:36:34;99442.63;;;23.34;39.11
67803;BME280;54601;51.378;-1.342;2022-09-09T12:39:10;99449.52;;;23.09;39.13
67803;BME280;54601;51.378;-1.342;2022-09-09T12:41:27;99450.80;;;22.86;39.15
67803;BME280;54601;51.378;-1.342;2022-09-09T12:46:24;99452.50;;;23.09;39.05
67803;BME280;54601;51.378;-1.342;2022-09-09T12:48:46;99453.08;;;23.22;38.75
67803;BME280;54601;51.378;-1.342;2022-09-09T12:51:17;99450.69;;;23.44;38.76
67803;BME280;54601;51.378;-1.342;2022-09-09T12:53:36;99451.10;;;23.21;38.73
67803;BME280;54601;51.378;-1.342;2022-09-09T12:56:03;99451.61;;;23.30;38.60